sensor_id;sensor_type;location;lat;lon;timestamp;P1;durP1;ratioP1;P2;durP2;ratioP2
55931;SDS011;41837;55.700;37.984;2023-03-23T00:02:00;14.02;;;6.07;;
55931;SDS011;41837;55.700;37.984;2023-03-23T00:05:27;14.73;;;6.38;;
55931;SDS011;41837;55.700;37.984;2023-03-23T00:08:54;15.07;;;6.38;;
55931;SDS011;41837;55.700;37.984;2023-03-23T00:12:21;11.95;;;6.38;;
55931;SDS011;41837;55.700;37.984;2023-03-23T00:15:46;14.05;;;6.32;;
55931;SDS011;41837;55.700;37.984;2023-03-23T00:19:14;12.63;;;6.80;;
55931;SDS011;41837;55.700;37.984;2023-03-23T00:22:39;15.73;;;6.45;;
55931;SDS011;41837;55.700;37.984;2023-03-23T00:26:05;11.73;;;6.53;;
55931;SDS011;41837;55.700;37.984;2023-03-23T00:29:30;15.55;;;6.20;;
55931;SDS011;41837;55.700;37.984;2023-03-23T00:32:55;11.40;;;6.30;;
55931;SDS011;41837;55.700;37.984;2023-03-23T00:36:20;10.40;;;5.97;;
55931;SDS011;41837;55.700;37.984;2023-03-23T00:39:45;13.55;;;7.03;;
55931;SDS011;41837;55.700;37.984;2023-03-23T00:43:15;19.63;;;6.97;;
55931;SDS011;41837;55.700;37.984;2023-03-23T00:46:46;14.65;;;6.30;;
55931;SDS011;41837;55.700;37.984;2023-03-23T00:50:12;18.45;;;6.38;;
55931;SDS011;41837;55.700;37.984;2023-03-23T00:53:38;13.52;;;6.90;;
55931;SDS011;41837;55.700;37.984;2023-03-23T00:57:03;14.73;;;7.40;;
55931;SDS011;41837;55.700;37.984;2023-03-23T01:00:29;13.80;;;7.60;;
55931;SDS011;41837;55.700;37.984;2023-03-23T01:03:57;15.05;;;7.30;;
55931;SDS011;41837;55.700;37.984;2023-03-23T01:07:22;12.10;;;7.00;;
55931;SDS011;41837;55.700;37.984;2023-03-23T01:10:48;13.02;;;6.45;;
55931;SDS011;41837;55.700;37.984;2023-03-23T01:14:16;14.27;;;6.38;;
55931;SDS011;41837;55.700;37.984;2023-03-23T01:17:43;10.45;;;5.60;;
55931;SDS011;41837;55.700;37.984;2023-03-23T01:21:09;11.90;;;5.88;;
55931;SDS011;41837;55.700;37.984;2023-03-23T01:24:34;10.05;;;5.47;;
55931;SDS011;41837;55.700;37.984;2023-03-23T01:28:02;12.20;;;4.97;;
55931;SDS011;41837;55.700;37.984;2023-03-23T01:31:26;9.73;;;4.97;;
55931;SDS011;41837;55.700;37.984;2023-03-23T01:34:52;8.27;;;4.63;;
55931;SDS011;41837;55.700;37.984;2023-03-23T01:38:17;10.13;;;4.90;;
55931;SDS011;41837;55.700;37.984;2023-03-23T01:41:42;9.10;;;4.97;;
55931;SDS011;41837;55.700;37.984;2023-03-23T01:45:28;13.38;;;5.88;;
55931;SDS011;41837;55.700;37.984;2023-03-23T01:48:56;14.68;;;4.95;;
55931;SDS011;41837;55.700;37.984;2023-03-23T01:52:23;10.73;;;4.60;;
55931;SDS011;41837;55.700;37.984;2023-03-23T01:55:52;7.55;;;4.55;;
55931;SDS011;41837;55.700;37.984;2023-03-23T01:59:28;8.50;;;4.28;;
55931;SDS011;41837;55.700;37.984;2023-03-23T02:02:54;11.80;;;4.38;;
55931;SDS011;41837;55.700;37.984;2023-03-23T02:06:22;9.32;;;4.40;;
55931;SDS011;41837;55.700;37.984;2023-03-23T02:09:50;6.18;;;4.10;;
55931;SDS011;41837;55.700;37.984;2023-03-23T02:13:15;9.07;;;4.75;;
55931;SDS011;41837;55.700;37.984;2023-03-23T02:16:53;8.05;;;4.35;;
55931;SDS011;41837;55.700;37.984;2023-03-23T02:20:58;6.78;;;4.20;;
55931;SDS011;41837;55.700;37.984;2023-03-23T02:32:12;7.30;;;4.15;;
55931;SDS011;41837;55.700;37.984;2023-03-23T02:36:02;7.93;;;4.25;;
55931;SDS011;41837;55.700;37.984;2023-03-23T02:39:43;9.43;;;4.05;;
55931;SDS011;41837;55.700;37.984;2023-03-23T02:43:14;7.53;;;3.88;;
55931;SDS011;41837;55.700;37.984;2023-03-23T02:46:41;8.23;;;3.90;;
55931;SDS011;41837;55.700;37.984;2023-03-23T02:50:08;8.23;;;3.50;;
55931;SDS011;41837;55.700;37.984;2023-03-23T02:53:36;7.80;;;4.05;;
55931;SDS011;41837;55.700;37.984;2023-03-23T02:57:02;5.05;;;3.45;;
55931;SDS011;41837;55.700;37.984;2023-03-23T03:00:28;7.53;;;3.45;;
55931;SDS011;41837;55.700;37.984;2023-03-23T03:04:03;7.47;;;3.33;;
55931;SDS011;41837;55.700;37.984;2023-03-23T03:07:39;10.70;;;4.18;;
55931;SDS011;41837;55.700;37.984;2023-03-23T03:11:11;5.72;;;3.20;;
55931;SDS011;41837;55.700;37.984;2023-03-23T03:14:49;6.40;;;3.35;;
55931;SDS011;41837;55.700;37.984;2023-03-23T03:19:11;12.55;;;3.50;;
55931;SDS011;41837;55.700;37.984;2023-03-23T03:22:37;5.03;;;2.58;;
55931;SDS011;41837;55.700;37.984;2023-03-23T03:26:05;6.53;;;3.03;;
55931;SDS011;41837;55.700;37.984;2023-03-23T03:29:40;4.82;;;3.10;;
55931;SDS011;41837;55.700;37.984;2023-03-23T03:33:06;9.63;;;3.30;;
55931;SDS011;41837;55.700;37.984;2023-03-23T03:36:34;8.85;;;3.22;;
55931;SDS011;41837;55.700;37.984;2023-03-23T03:40:05;6.07;;;3.20;;
55931;SDS011;41837;55.700;37.984;2023-03-23T03:43:30;5.95;;;3.33;;
55931;SDS011;41837;55.700;37.984;2023-03-23T03:46:55;6.20;;;3.13;;
55931;SDS011;41837;55.700;37.984;2023-03-23T03:50:21;5.47;;;3.15;;
55931;SDS011;41837;55.700;37.984;2023-03-23T03:53:51;6.85;;;3.50;;
55931;SDS011;41837;55.700;37.984;2023-03-23T03:57:17;7.47;;;3.00;;
55931;SDS011;41837;55.700;37.984;2023-03-23T04:01:04;7.07;;;3.78;;
55931;SDS011;41837;55.700;37.984;2023-03-23T04:04:29;7.53;;;3.83;;
55931;SDS011;41837;55.700;37.984;2023-03-23T04:07:55;8.80;;;4.57;;
55931;SDS011;41837;55.700;37.984;2023-03-23T04:11:21;9.75;;;4.68;;
55931;SDS011;41837;55.700;37.984;2023-03-23T04:14:55;12.05;;;5.45;;
55931;SDS011;41837;55.700;37.984;2023-03-23T04:18:21;10.77;;;5.50;;
55931;SDS011;41837;55.700;37.984;2023-03-23T04:21:48;18.02;;;6.68;;
55931;SDS011;41837;55.700;37.984;2023-03-23T04:25:19;19.63;;;7.88;;
55931;SDS011;41837;55.700;37.984;2023-03-23T04:28:48;21.45;;;8.40;;
55931;SDS011;41837;55.700;37.984;2023-03-23T04:32:37;20.67;;;8.13;;
55931;SDS011;41837;55.700;37.984;2023-03-23T04:36:03;20.75;;;8.70;;
55931;SDS011;41837;55.700;37.984;2023-03-23T04:39:30;20.40;;;8.18;;
55931;SDS011;41837;55.700;37.984;2023-03-23T04:43:06;24.20;;;9.75;;
55931;SDS011;41837;55.700;37.984;2023-03-23T04:46:44;22.50;;;11.25;;
55931;SDS011;41837;55.700;37.984;2023-03-23T04:50:37;26.02;;;10.52;;
55931;SDS011;41837;55.700;37.984;2023-03-23T04:54:40;28.83;;;11.25;;
55931;SDS011;41837;55.700;37.984;2023-03-23T04:58:11;29.15;;;11.20;;
55931;SDS011;41837;55.700;37.984;2023-03-23T05:01:45;33.08;;;14.20;;
55931;SDS011;41837;55.700;37.984;2023-03-23T05:05:12;26.10;;;11.65;;
55931;SDS011;41837;55.700;37.984;2023-03-23T05:08:39;28.55;;;11.70;;
55931;SDS011;41837;55.700;37.984;2023-03-23T05:12:08;21.38;;;9.88;;
55931;SDS011;41837;55.700;37.984;2023-03-23T05:15:37;18.25;;;8.98;;
55931;SDS011;41837;55.700;37.984;2023-03-23T05:19:06;19.00;;;9.20;;
55931;SDS011;41837;55.700;37.984;2023-03-23T05:22:47;22.20;;;9.85;;
55931;SDS011;41837;55.700;37.984;2023-03-23T05:26:22;19.42;;;8.93;;
55931;SDS011;41837;55.700;37.984;2023-03-23T05:29:49;18.63;;;8.88;;
55931;SDS011;41837;55.700;37.984;2023-03-23T05:36:55;17.45;;;7.25;;
55931;SDS011;41837;55.700;37.984;2023-03-23T05:40:22;13.57;;;7.35;;
55931;SDS011;41837;55.700;37.984;2023-03-23T05:43:50;13.77;;;7.43;;
55931;SDS011;41837;55.700;37.984;2023-03-23T05:47:16;18.27;;;7.85;;
55931;SDS011;41837;55.700;37.984;2023-03-23T05:50:41;13.15;;;6.55;;
55931;SDS011;41837;55.700;37.984;2023-03-23T05:54:06;13.63;;;7.43;;
55931;SDS011;41837;55.700;37.984;2023-03-23T05:57:34;12.85;;;6.93;;
55931;SDS011;41837;55.700;37.984;2023-03-23T06:00:59;13.10;;;6.85;;
55931;SDS011;41837;55.700;37.984;2023-03-23T06:04:24;11.45;;;7.13;;
55931;SDS011;41837;55.700;37.984;2023-03-23T06:07:53;10.88;;;6.68;;
55931;SDS011;41837;55.700;37.984;2023-03-23T06:14:57;13.63;;;7.28;;
55931;SDS011;41837;55.700;37.984;2023-03-23T06:18:38;12.95;;;7.55;;
55931;SDS011;41837;55.700;37.984;2023-03-23T06:22:13;14.65;;;7.78;;
55931;SDS011;41837;55.700;37.984;2023-03-23T06:25:39;12.48;;;7.72;;
55931;SDS011;41837;55.700;37.984;2023-03-23T06:29:10;13.57;;;7.57;;
55931;SDS011;41837;55.700;37.984;2023-03-23T06:32:36;14.13;;;8.00;;
55931;SDS011;41837;55.700;37.984;2023-03-23T06:36:22;18.65;;;8.18;;
55931;SDS011;41837;55.700;37.984;2023-03-23T06:40:16;15.30;;;7.88;;
55931;SDS011;41837;55.700;37.984;2023-03-23T06:43:45;15.88;;;8.00;;
55931;SDS011;41837;55.700;37.984;2023-03-23T06:47:11;15.40;;;8.13;;
55931;SDS011;41837;55.700;37.984;2023-03-23T06:50:37;13.27;;;7.40;;
55931;SDS011;41837;55.700;37.984;2023-03-23T06:54:03;14.35;;;7.80;;
55931;SDS011;41837;55.700;37.984;2023-03-23T06:57:29;13.10;;;7.75;;
55931;SDS011;41837;55.700;37.984;2023-03-23T07:00:55;11.20;;;8.13;;
55931;SDS011;41837;55.700;37.984;2023-03-23T07:04:20;12.73;;;7.73;;
55931;SDS011;41837;55.700;37.984;2023-03-23T07:07:48;20.05;;;8.05;;
55931;SDS011;41837;55.700;37.984;2023-03-23T07:11:18;15.60;;;8.15;;
55931;SDS011;41837;55.700;37.984;2023-03-23T07:14:46;13.50;;;7.50;;
55931;SDS011;41837;55.700;37.984;2023-03-23T07:18:11;13.88;;;7.95;;
55931;SDS011;41837;55.700;37.984;2023-03-23T07:21:37;11.43;;;7.23;;
55931;SDS011;41837;55.700;37.984;2023-03-23T07:25:10;12.55;;;7.30;;
55931;SDS011;41837;55.700;37.984;2023-03-23T07:28:43;12.45;;;7.40;;
55931;SDS011;41837;55.700;37.984;2023-03-23T07:32:14;11.80;;;6.80;;
55931;SDS011;41837;55.700;37.984;2023-03-23T07:35:40;13.95;;;7.45;;
55931;SDS011;41837;55.700;37.984;2023-03-23T07:39:07;14.52;;;6.95;;
55931;SDS011;41837;55.700;37.984;2023-03-23T07:42:43;12.98;;;7.97;;
55931;SDS011;41837;55.700;37.984;2023-03-23T07:46:09;16.05;;;8.15;;
55931;SDS011;41837;55.700;37.984;2023-03-23T07:49:34;13.00;;;8.15;;
55931;SDS011;41837;55.700;37.984;2023-03-23T07:53:06;12.82;;;7.47;;
55931;SDS011;41837;55.700;37.984;2023-03-23T07:56:55;16.23;;;7.95;;
55931;SDS011;41837;55.700;37.984;2023-03-23T08:00:21;11.30;;;7.50;;
55931;SDS011;41837;55.700;37.984;2023-03-23T08:04:07;14.57;;;7.47;;
55931;SDS011;41837;55.700;37.984;2023-03-23T08:07:58;12.98;;;7.88;;
55931;SDS011;41837;55.700;37.984;2023-03-23T08:11:42;12.07;;;8.02;;
55931;SDS011;41837;55.700;37.984;2023-03-23T08:15:31;12.95;;;7.43;;
55931;SDS011;41837;55.700;37.984;2023-03-23T08:18:59;11.30;;;6.82;;
55931;SDS011;41837;55.700;37.984;2023-03-23T08:22:54;10.90;;;6.95;;
55931;SDS011;41837;55.700;37.984;2023-03-23T08:26:41;13.32;;;6.60;;
55931;SDS011;41837;55.700;37.984;2023-03-23T08:30:25;10.10;;;6.90;;
55931;SDS011;41837;55.700;37.984;2023-03-23T08:34:10;11.20;;;6.10;;
55931;SDS011;41837;55.700;37.984;2023-03-23T08:37:49;11.32;;;6.63;;
55931;SDS011;41837;55.700;37.984;2023-03-23T08:41:46;11.27;;;6.53;;
55931;SDS011;41837;55.700;37.984;2023-03-23T08:45:30;9.27;;;6.22;;
55931;SDS011;41837;55.700;37.984;2023-03-23T08:53:00;10.07;;;6.57;;
55931;SDS011;41837;55.700;37.984;2023-03-23T08:56:45;10.35;;;6.05;;
55931;SDS011;41837;55.700;37.984;2023-03-23T09:00:30;14.45;;;7.22;;
55931;SDS011;41837;55.700;37.984;2023-03-23T09:04:14;15.30;;;6.53;;
55931;SDS011;41837;55.700;37.984;2023-03-23T09:07:40;8.18;;;5.80;;
55931;SDS011;41837;55.700;37.984;2023-03-23T09:11:08;9.88;;;5.80;;
55931;SDS011;41837;55.700;37.984;2023-03-23T09:14:35;12.88;;;6.28;;
55931;SDS011;41837;55.700;37.984;2023-03-23T09:18:00;10.20;;;5.63;;
55931;SDS011;41837;55.700;37.984;2023-03-23T09:21:25;12.07;;;6.82;;
55931;SDS011;41837;55.700;37.984;2023-03-23T09:24:51;9.85;;;5.93;;
55931;SDS011;41837;55.700;37.984;2023-03-23T09:28:17;9.83;;;6.10;;
55931;SDS011;41837;55.700;37.984;2023-03-23T09:31:42;8.55;;;6.32;;
55931;SDS011;41837;55.700;37.984;2023-03-23T09:35:09;10.98;;;6.40;;
55931;SDS011;41837;55.700;37.984;2023-03-23T09:38:38;10.18;;;6.35;;
55931;SDS011;41837;55.700;37.984;2023-03-23T09:42:17;9.20;;;6.45;;
55931;SDS011;41837;55.700;37.984;2023-03-23T09:49:32;10.10;;;6.07;;
55931;SDS011;41837;55.700;37.984;2023-03-23T09:53:00;9.32;;;5.75;;
55931;SDS011;41837;55.700;37.984;2023-03-23T09:56:47;10.55;;;6.07;;
55931;SDS011;41837;55.700;37.984;2023-03-23T10:00:20;8.43;;;5.55;;
55931;SDS011;41837;55.700;37.984;2023-03-23T10:04:01;14.63;;;6.30;;
55931;SDS011;41837;55.700;37.984;2023-03-23T10:07:47;9.20;;;5.82;;
55931;SDS011;41837;55.700;37.984;2023-03-23T10:11:46;9.85;;;5.95;;
55931;SDS011;41837;55.700;37.984;2023-03-23T10:18:54;11.15;;;5.90;;
55931;SDS011;41837;55.700;37.984;2023-03-23T10:22:23;8.23;;;5.45;;
55931;SDS011;41837;55.700;37.984;2023-03-23T10:29:58;10.27;;;5.32;;
55931;SDS011;41837;55.700;37.984;2023-03-23T10:37:01;8.38;;;5.25;;
55931;SDS011;41837;55.700;37.984;2023-03-23T10:40:28;9.82;;;5.30;;
55931;SDS011;41837;55.700;37.984;2023-03-23T10:43:53;9.30;;;4.50;;
55931;SDS011;41837;55.700;37.984;2023-03-23T10:47:18;7.57;;;4.60;;
55931;SDS011;41837;55.700;37.984;2023-03-23T10:50:48;9.55;;;5.18;;
55931;SDS011;41837;55.700;37.984;2023-03-23T10:54:32;7.45;;;4.57;;
55931;SDS011;41837;55.700;37.984;2023-03-23T10:58:06;9.57;;;5.20;;
55931;SDS011;41837;55.700;37.984;2023-03-23T11:02:00;9.60;;;4.47;;
55931;SDS011;41837;55.700;37.984;2023-03-23T11:05:32;10.80;;;4.93;;
55931;SDS011;41837;55.700;37.984;2023-03-23T11:09:13;7.72;;;5.30;;
55931;SDS011;41837;55.700;37.984;2023-03-23T11:12:44;7.28;;;4.55;;
55931;SDS011;41837;55.700;37.984;2023-03-23T11:16:21;7.60;;;4.68;;
55931;SDS011;41837;55.700;37.984;2023-03-23T11:19:53;6.88;;;4.53;;
55931;SDS011;41837;55.700;37.984;2023-03-23T11:26:48;7.00;;;5.00;;
55931;SDS011;41837;55.700;37.984;2023-03-23T11:30:25;6.70;;;4.30;;
55931;SDS011;41837;55.700;37.984;2023-03-23T11:34:01;7.55;;;4.10;;
55931;SDS011;41837;55.700;37.984;2023-03-23T11:37:38;7.07;;;3.95;;
55931;SDS011;41837;55.700;37.984;2023-03-23T11:41:09;7.05;;;4.05;;
55931;SDS011;41837;55.700;37.984;2023-03-23T11:44:42;7.13;;;4.20;;
55931;SDS011;41837;55.700;37.984;2023-03-23T11:52:13;6.13;;;4.43;;
55931;SDS011;41837;55.700;37.984;2023-03-23T11:59:15;11.65;;;4.47;;
55931;SDS011;41837;55.700;37.984;2023-03-23T12:02:59;6.25;;;4.03;;
55931;SDS011;41837;55.700;37.984;2023-03-23T12:06:50;10.15;;;4.82;;
55931;SDS011;41837;55.700;37.984;2023-03-23T12:10:31;10.45;;;4.25;;
55931;SDS011;41837;55.700;37.984;2023-03-23T12:22:01;6.57;;;3.50;;
55931;SDS011;41837;55.700;37.984;2023-03-23T12:25:37;5.10;;;3.50;;
55931;SDS011;41837;55.700;37.984;2023-03-23T12:40:42;5.50;;;3.60;;
55931;SDS011;41837;55.700;37.984;2023-03-23T12:44:25;5.20;;;3.22;;
55931;SDS011;41837;55.700;37.984;2023-03-23T12:47:59;11.70;;;3.35;;
55931;SDS011;41837;55.700;37.984;2023-03-23T12:55:19;5.50;;;3.85;;
55931;SDS011;41837;55.700;37.984;2023-03-23T12:58:53;11.05;;;4.03;;
55931;SDS011;41837;55.700;37.984;2023-03-23T13:02:28;8.13;;;3.60;;
55931;SDS011;41837;55.700;37.984;2023-03-23T13:06:06;11.30;;;4.15;;
55931;SDS011;41837;55.700;37.984;2023-03-23T13:09:46;6.45;;;3.92;;
55931;SDS011;41837;55.700;37.984;2023-03-23T13:13:18;7.32;;;3.47;;
55931;SDS011;41837;55.700;37.984;2023-03-23T13:24:58;5.45;;;3.60;;
55931;SDS011;41837;55.700;37.984;2023-03-23T13:32:18;8.23;;;3.72;;
55931;SDS011;41837;55.700;37.984;2023-03-23T13:35:43;6.03;;;3.38;;
55931;SDS011;41837;55.700;37.984;2023-03-23T13:39:19;6.30;;;3.83;;
55931;SDS011;41837;55.700;37.984;2023-03-23T13:42:58;5.75;;;3.53;;
55931;SDS011;41837;55.700;37.984;2023-03-23T13:46:54;8.50;;;4.20;;
55931;SDS011;41837;55.700;37.984;2023-03-23T13:50:30;9.07;;;3.78;;
55931;SDS011;41837;55.700;37.984;2023-03-23T13:54:06;7.78;;;4.20;;
55931;SDS011;41837;55.700;37.984;2023-03-23T13:57:56;10.57;;;3.95;;
55931;SDS011;41837;55.700;37.984;2023-03-23T14:01:33;10.38;;;4.95;;
55931;SDS011;41837;55.700;37.984;2023-03-23T14:05:37;10.15;;;4.95;;
55931;SDS011;41837;55.700;37.984;2023-03-23T14:09:11;6.32;;;3.95;;
55931;SDS011;41837;55.700;37.984;2023-03-23T14:12:42;5.93;;;3.75;;
55931;SDS011;41837;55.700;37.984;2023-03-23T14:16:16;7.40;;;3.63;;
55931;SDS011;41837;55.700;37.984;2023-03-23T14:19:45;6.75;;;4.25;;
55931;SDS011;41837;55.700;37.984;2023-03-23T14:23:14;7.10;;;3.90;;
55931;SDS011;41837;55.700;37.984;2023-03-23T14:26:42;9.20;;;3.97;;
55931;SDS011;41837;55.700;37.984;2023-03-23T14:30:12;8.57;;;4.60;;
55931;SDS011;41837;55.700;37.984;2023-03-23T14:33:48;7.57;;;4.15;;
55931;SDS011;41837;55.700;37.984;2023-03-23T14:37:15;10.85;;;4.38;;
55931;SDS011;41837;55.700;37.984;2023-03-23T14:40:42;8.70;;;4.30;;
55931;SDS011;41837;55.700;37.984;2023-03-23T14:47:46;10.20;;;4.43;;
55931;SDS011;41837;55.700;37.984;2023-03-23T14:51:17;11.23;;;5.57;;
55931;SDS011;41837;55.700;37.984;2023-03-23T14:54:44;7.60;;;5.00;;
55931;SDS011;41837;55.700;37.984;2023-03-23T14:58:13;7.88;;;4.63;;
55931;SDS011;41837;55.700;37.984;2023-03-23T15:01:39;8.52;;;4.63;;
55931;SDS011;41837;55.700;37.984;2023-03-23T15:05:11;7.53;;;3.95;;
55931;SDS011;41837;55.700;37.984;2023-03-23T15:08:40;11.55;;;4.75;;
55931;SDS011;41837;55.700;37.984;2023-03-23T15:12:09;6.95;;;4.65;;
55931;SDS011;41837;55.700;37.984;2023-03-23T15:15:38;7.68;;;4.70;;
55931;SDS011;41837;55.700;37.984;2023-03-23T15:19:11;8.48;;;4.78;;
55931;SDS011;41837;55.700;37.984;2023-03-23T15:22:48;10.15;;;5.47;;
55931;SDS011;41837;55.700;37.984;2023-03-23T15:30:11;8.30;;;5.13;;
55931;SDS011;41837;55.700;37.984;2023-03-23T15:33:36;10.52;;;5.15;;
55931;SDS011;41837;55.700;37.984;2023-03-23T15:37:18;8.85;;;4.47;;
55931;SDS011;41837;55.700;37.984;2023-03-23T15:40:51;8.35;;;5.13;;
55931;SDS011;41837;55.700;37.984;2023-03-23T15:44:32;10.05;;;5.47;;
55931;SDS011;41837;55.700;37.984;2023-03-23T15:48:04;14.93;;;5.47;;
55931;SDS011;41837;55.700;37.984;2023-03-23T15:51:36;10.07;;;4.85;;
55931;SDS011;41837;55.700;37.984;2023-03-23T15:55:01;10.50;;;4.78;;
55931;SDS011;41837;55.700;37.984;2023-03-23T15:58:28;8.77;;;4.82;;
55931;SDS011;41837;55.700;37.984;2023-03-23T16:01:53;11.30;;;4.95;;
55931;SDS011;41837;55.700;37.984;2023-03-23T16:05:22;10.25;;;5.18;;
55931;SDS011;41837;55.700;37.984;2023-03-23T16:08:48;8.52;;;4.95;;
55931;SDS011;41837;55.700;37.984;2023-03-23T16:12:13;9.57;;;5.07;;
55931;SDS011;41837;55.700;37.984;2023-03-23T16:15:39;9.83;;;5.10;;
55931;SDS011;41837;55.700;37.984;2023-03-23T16:19:07;10.90;;;5.20;;
55931;SDS011;41837;55.700;37.984;2023-03-23T16:22:46;9.55;;;4.85;;
55931;SDS011;41837;55.700;37.984;2023-03-23T16:26:12;7.32;;;4.93;;
55931;SDS011;41837;55.700;37.984;2023-03-23T16:29:41;11.10;;;5.00;;
55931;SDS011;41837;55.700;37.984;2023-03-23T16:33:07;10.05;;;4.43;;
55931;SDS011;41837;55.700;37.984;2023-03-23T16:36:32;8.80;;;5.13;;
55931;SDS011;41837;55.700;37.984;2023-03-23T16:39:58;9.10;;;4.80;;
55931;SDS011;41837;55.700;37.984;2023-03-23T16:43:23;8.02;;;4.63;;
55931;SDS011;41837;55.700;37.984;2023-03-23T16:46:48;9.45;;;5.05;;
55931;SDS011;41837;55.700;37.984;2023-03-23T16:50:14;11.18;;;4.95;;
55931;SDS011;41837;55.700;37.984;2023-03-23T16:53:39;11.55;;;5.45;;
55931;SDS011;41837;55.700;37.984;2023-03-23T16:57:04;13.98;;;5.20;;
55931;SDS011;41837;55.700;37.984;2023-03-23T17:00:29;16.77;;;5.45;;
55931;SDS011;41837;55.700;37.984;2023-03-23T17:03:54;13.32;;;6.10;;
55931;SDS011;41837;55.700;37.984;2023-03-23T17:07:19;13.20;;;5.68;;
55931;SDS011;41837;55.700;37.984;2023-03-23T17:10:45;12.32;;;6.20;;
55931;SDS011;41837;55.700;37.984;2023-03-23T17:14:09;13.88;;;6.40;;
55931;SDS011;41837;55.700;37.984;2023-03-23T17:17:35;14.45;;;7.30;;
55931;SDS011;41837;55.700;37.984;2023-03-23T17:21:00;13.25;;;6.30;;
55931;SDS011;41837;55.700;37.984;2023-03-23T17:24:25;10.82;;;6.32;;
55931;SDS011;41837;55.700;37.984;2023-03-23T17:27:51;19.38;;;9.20;;
55931;SDS011;41837;55.700;37.984;2023-03-23T17:31:17;19.50;;;9.20;;
55931;SDS011;41837;55.700;37.984;2023-03-23T17:34:43;24.20;;;12.93;;
55931;SDS011;41837;55.700;37.984;2023-03-23T17:38:10;34.38;;;14.15;;
55931;SDS011;41837;55.700;37.984;2023-03-23T17:41:36;31.20;;;11.88;;
55931;SDS011;41837;55.700;37.984;2023-03-23T17:45:02;27.23;;;11.82;;
55931;SDS011;41837;55.700;37.984;2023-03-23T17:48:28;28.33;;;11.95;;
55931;SDS011;41837;55.700;37.984;2023-03-23T17:51:55;19.85;;;10.10;;
55931;SDS011;41837;55.700;37.984;2023-03-23T17:55:21;25.30;;;11.30;;
55931;SDS011;41837;55.700;37.984;2023-03-23T17:58:45;21.70;;;10.48;;
55931;SDS011;41837;55.700;37.984;2023-03-23T18:02:10;20.05;;;10.18;;
55931;SDS011;41837;55.700;37.984;2023-03-23T18:05:35;24.73;;;9.95;;
55931;SDS011;41837;55.700;37.984;2023-03-23T18:09:00;26.70;;;10.70;;
55931;SDS011;41837;55.700;37.984;2023-03-23T18:12:29;21.30;;;10.73;;
55931;SDS011;41837;55.700;37.984;2023-03-23T18:15:56;20.88;;;9.10;;
55931;SDS011;41837;55.700;37.984;2023-03-23T18:19:20;14.77;;;7.05;;
55931;SDS011;41837;55.700;37.984;2023-03-23T18:22:46;12.38;;;7.03;;
55931;SDS011;41837;55.700;37.984;2023-03-23T18:26:11;10.88;;;6.18;;
55931;SDS011;41837;55.700;37.984;2023-03-23T18:29:36;13.88;;;5.97;;
55931;SDS011;41837;55.700;37.984;2023-03-23T18:33:01;14.10;;;5.47;;
55931;SDS011;41837;55.700;37.984;2023-03-23T18:36:27;13.13;;;5.43;;
55931;SDS011;41837;55.700;37.984;2023-03-23T18:39:52;8.23;;;4.95;;
55931;SDS011;41837;55.700;37.984;2023-03-23T18:43:17;11.88;;;6.20;;
55931;SDS011;41837;55.700;37.984;2023-03-23T18:46:42;16.00;;;6.07;;
55931;SDS011;41837;55.700;37.984;2023-03-23T18:50:09;12.10;;;5.80;;
55931;SDS011;41837;55.700;37.984;2023-03-23T18:53:34;10.48;;;6.00;;
55931;SDS011;41837;55.700;37.984;2023-03-23T18:57:00;14.45;;;5.93;;
55931;SDS011;41837;55.700;37.984;2023-03-23T19:00:24;10.35;;;5.38;;
55931;SDS011;41837;55.700;37.984;2023-03-23T19:03:49;16.58;;;7.47;;
55931;SDS011;41837;55.700;37.984;2023-03-23T19:07:14;20.30;;;8.32;;
55931;SDS011;41837;55.700;37.984;2023-03-23T19:10:40;13.15;;;6.82;;
55931;SDS011;41837;55.700;37.984;2023-03-23T19:14:06;14.38;;;5.20;;
55931;SDS011;41837;55.700;37.984;2023-03-23T19:17:31;12.98;;;5.45;;
55931;SDS011;41837;55.700;37.984;2023-03-23T19:20:56;16.63;;;6.05;;
55931;SDS011;41837;55.700;37.984;2023-03-23T19:24:21;13.77;;;5.40;;
55931;SDS011;41837;55.700;37.984;2023-03-23T19:27:46;19.48;;;6.00;;
55931;SDS011;41837;55.700;37.984;2023-03-23T19:31:10;18.27;;;6.85;;
55931;SDS011;41837;55.700;37.984;2023-03-23T19:34:36;26.67;;;13.38;;
55931;SDS011;41837;55.700;37.984;2023-03-23T19:38:01;43.17;;;18.50;;
55931;SDS011;41837;55.700;37.984;2023-03-23T19:41:29;33.25;;;14.98;;
55931;SDS011;41837;55.700;37.984;2023-03-23T19:44:54;26.08;;;11.88;;
55931;SDS011;41837;55.700;37.984;2023-03-23T19:48:19;24.88;;;9.95;;
55931;SDS011;41837;55.700;37.984;2023-03-23T19:51:43;25.55;;;8.80;;
55931;SDS011;41837;55.700;37.984;2023-03-23T19:55:08;20.23;;;7.57;;
55931;SDS011;41837;55.700;37.984;2023-03-23T19:58:40;14.00;;;6.68;;
55931;SDS011;41837;55.700;37.984;2023-03-23T20:02:05;19.40;;;7.70;;
55931;SDS011;41837;55.700;37.984;2023-03-23T20:05:31;15.40;;;7.15;;
55931;SDS011;41837;55.700;37.984;2023-03-23T20:08:56;14.02;;;7.70;;
55931;SDS011;41837;55.700;37.984;2023-03-23T20:12:21;23.35;;;8.00;;
55931;SDS011;41837;55.700;37.984;2023-03-23T20:15:50;20.45;;;7.13;;
55931;SDS011;41837;55.700;37.984;2023-03-23T20:19:16;15.02;;;8.10;;
55931;SDS011;41837;55.700;37.984;2023-03-23T20:22:42;11.20;;;5.95;;
55931;SDS011;41837;55.700;37.984;2023-03-23T20:26:09;13.13;;;5.82;;
55931;SDS011;41837;55.700;37.984;2023-03-23T20:29:34;10.20;;;6.00;;
55931;SDS011;41837;55.700;37.984;2023-03-23T20:32:59;8.48;;;5.15;;
55931;SDS011;41837;55.700;37.984;2023-03-23T20:39:53;8.20;;;5.38;;
55931;SDS011;41837;55.700;37.984;2023-03-23T20:43:24;11.00;;;5.50;;
55931;SDS011;41837;55.700;37.984;2023-03-23T20:46:51;9.32;;;5.82;;
55931;SDS011;41837;55.700;37.984;2023-03-23T20:50:16;10.10;;;5.90;;
55931;SDS011;41837;55.700;37.984;2023-03-23T20:53:42;10.07;;;5.85;;
55931;SDS011;41837;55.700;37.984;2023-03-23T20:57:07;9.82;;;5.78;;
55931;SDS011;41837;55.700;37.984;2023-03-23T21:00:32;10.95;;;6.00;;
55931;SDS011;41837;55.700;37.984;2023-03-23T21:04:04;9.90;;;5.97;;
55931;SDS011;41837;55.700;37.984;2023-03-23T21:07:30;13.32;;;6.30;;
55931;SDS011;41837;55.700;37.984;2023-03-23T21:10:56;10.23;;;6.35;;
55931;SDS011;41837;55.700;37.984;2023-03-23T21:14:22;12.27;;;5.93;;
55931;SDS011;41837;55.700;37.984;2023-03-23T21:17:46;15.43;;;6.50;;
55931;SDS011;41837;55.700;37.984;2023-03-23T21:21:12;10.20;;;6.50;;
55931;SDS011;41837;55.700;37.984;2023-03-23T21:24:39;9.02;;;6.07;;
55931;SDS011;41837;55.700;37.984;2023-03-23T21:28:06;11.32;;;7.28;;
55931;SDS011;41837;55.700;37.984;2023-03-23T21:31:35;11.55;;;6.53;;
55931;SDS011;41837;55.700;37.984;2023-03-23T21:35:00;11.65;;;6.20;;
55931;SDS011;41837;55.700;37.984;2023-03-23T21:38:26;12.23;;;7.18;;
55931;SDS011;41837;55.700;37.984;2023-03-23T21:41:52;12.30;;;6.78;;
55931;SDS011;41837;55.700;37.984;2023-03-23T21:45:18;10.23;;;7.00;;
55931;SDS011;41837;55.700;37.984;2023-03-23T21:48:44;10.32;;;7.13;;
55931;SDS011;41837;55.700;37.984;2023-03-23T21:52:10;11.60;;;7.30;;
55931;SDS011;41837;55.700;37.984;2023-03-23T21:55:38;12.90;;;8.07;;
55931;SDS011;41837;55.700;37.984;2023-03-23T21:59:03;10.82;;;7.03;;
55931;SDS011;41837;55.700;37.984;2023-03-23T22:02:31;13.55;;;7.70;;
55931;SDS011;41837;55.700;37.984;2023-03-23T22:05:57;18.38;;;8.27;;
55931;SDS011;41837;55.700;37.984;2023-03-23T22:09:23;15.25;;;8.77;;